createdAt,value
2023-03-06T00:02:08.004Z,101024.50
2023-03-06T00:04:34.717Z,101025.09
2023-03-06T00:07:01.433Z,101020.75
2023-03-06T00:09:28.127Z,101025.25
2023-03-06T00:11:54.918Z,101019.41
2023-03-06T00:14:21.681Z,101016.84
2023-03-06T00:16:54.966Z,101021.94
2023-03-06T00:19:22.812Z,101023.50
2023-03-06T00:21:49.801Z,101023.50
2023-03-06T00:24:16.597Z,101020.09
2023-03-06T00:26:43.361Z,101019.78
2023-03-06T00:29:10.344Z,101023.28
2023-03-06T00:31:37.344Z,101011.16
2023-03-06T00:34:04.697Z,101009.25
2023-03-06T00:36:31.444Z,101005.47
2023-03-06T00:38:58.357Z,101005.63
2023-03-06T00:41:25.095Z,101008.00
2023-03-06T00:43:51.793Z,101010.84
2023-03-06T00:46:18.665Z,101002.41
2023-03-06T00:48:45.634Z,100999.97
2023-03-06T00:51:14.036Z,100998.41
2023-03-06T00:53:41.080Z,100983.81
2023-03-06T00:56:09.247Z,100983.09
2023-03-06T00:58:37.380Z,100986.56
2023-03-06T01:01:04.786Z,100983.00
2023-03-06T01:03:31.717Z,100985.63
2023-03-06T01:05:58.571Z,100977.09
2023-03-06T01:08:25.354Z,100966.06
2023-03-06T01:10:52.179Z,100955.81
2023-03-06T01:13:18.846Z,100952.59
2023-03-06T01:15:45.589Z,100960.41
2023-03-06T01:18:12.338Z,100951.22
2023-03-06T01:20:39.324Z,100941.00
2023-03-06T01:23:06.040Z,100932.56
2023-03-06T01:25:32.891Z,100929.09
2023-03-06T01:27:59.609Z,100928.38
2023-03-06T01:30:26.343Z,100935.13
2023-03-06T01:32:53.459Z,100930.91
2023-03-06T01:35:20.397Z,100921.47
2023-03-06T01:37:47.220Z,100922.78
2023-03-06T01:40:14.513Z,100924.47
2023-03-06T01:42:41.890Z,100915.78
2023-03-06T01:45:31.787Z,100910.56
2023-03-06T01:47:58.629Z,100887.50
2023-03-06T01:50:25.559Z,100893.47
2023-03-06T01:52:55.544Z,100891.81
2023-03-06T01:55:30.992Z,100891.78
2023-03-06T01:58:01.337Z,100882.41
2023-03-06T02:00:29.685Z,100884.16
2023-03-06T02:03:11.489Z,100881.25
2023-03-06T02:05:40.487Z,100877.72
2023-03-06T02:08:11.434Z,100868.50
2023-03-06T02:10:58.116Z,100872.88
2023-03-06T02:13:25.034Z,100867.75
2023-03-06T02:15:52.020Z,100865.19
2023-03-06T02:18:19.967Z,100863.72
2023-03-06T02:20:53.009Z,100864.66
2023-03-06T02:23:48.910Z,100869.94
2023-03-06T02:26:16.526Z,100869.09
2023-03-06T02:28:43.438Z,100873.34
2023-03-06T02:31:25.411Z,100879.41
2023-03-06T02:34:14.079Z,100870.72
2023-03-06T02:36:48.501Z,100881.97
2023-03-06T02:39:16.068Z,100871.72
2023-03-06T02:41:42.776Z,100876.06
2023-03-06T02:44:09.654Z,100885.53
2023-03-06T02:46:36.493Z,100884.75
2023-03-06T02:49:03.262Z,100896.75
2023-03-06T02:51:30.073Z,100883.81
2023-03-06T02:53:56.942Z,100895.69
2023-03-06T02:56:23.737Z,100885.34
2023-03-06T02:58:50.558Z,100883.66
2023-03-06T03:01:17.291Z,100879.28
2023-03-06T03:03:44.218Z,100879.94
2023-03-06T03:06:11.264Z,100878.06
2023-03-06T03:08:38.324Z,100881.53
2023-03-06T03:11:05.849Z,100887.59
2023-03-06T03:13:39.435Z,100884.97
2023-03-06T03:16:14.054Z,100866.88
2023-03-06T03:18:42.191Z,100857.97
2023-03-06T03:21:12.447Z,100848.81
2023-03-06T03:23:39.363Z,100847.97
2023-03-06T03:26:11.882Z,100835.31
2023-03-06T03:28:42.207Z,100838.06
2023-03-06T03:31:12.457Z,100829.03
2023-03-06T03:33:40.340Z,100821.72
2023-03-06T03:36:08.371Z,100820.16
2023-03-06T03:38:39.246Z,100814.22
2023-03-06T03:41:06.592Z,100807.63
2023-03-06T03:43:33.856Z,100803.44
2023-03-06T03:46:01.007Z,100806.88
2023-03-06T03:48:28.530Z,100813.66
2023-03-06T03:51:05.016Z,100809.09
2023-03-06T03:53:32.763Z,100812.56
2023-03-06T03:55:59.578Z,100807.31
2023-03-06T03:58:27.151Z,100797.66
2023-03-06T04:00:53.970Z,100802.16
2023-03-06T04:03:20.892Z,100807.38
2023-03-06T04:05:47.879Z,100812.81
2023-03-06T04:08:16.358Z,100798.53
2023-03-06T04:10:45.792Z,100808.28
2023-03-06T04:13:14.845Z,100810.53
2023-03-06T04:15:43.935Z,100820.13
2023-03-06T04:18:11.572Z,100821.00
2023-03-06T04:20:38.960Z,100817.31
2023-03-06T04:23:05.784Z,100802.59
2023-03-06T04:25:32.953Z,100812.84
2023-03-06T04:28:02.076Z,100823.22
2023-03-06T04:30:29.975Z,100816.41
2023-03-06T04:32:57.848Z,100825.94
2023-03-06T04:35:25.063Z,100821.56
2023-03-06T04:37:58.491Z,100818.97
2023-03-06T04:40:30.467Z,100830.09
2023-03-06T04:42:59.194Z,100825.84
2023-03-06T04:45:27.684Z,100821.66
2023-03-06T04:47:55.208Z,100814.84
2023-03-06T04:50:22.767Z,100808.81
2023-03-06T04:52:49.801Z,100805.34
2023-03-06T04:55:17.676Z,100807.94
2023-03-06T04:57:46.340Z,100805.41
2023-03-06T05:00:22.452Z,100803.78
2023-03-06T05:02:50.087Z,100809.75
2023-03-06T05:05:18.052Z,100812.31
2023-03-06T05:07:44.974Z,100807.09
2023-03-06T05:10:14.579Z,100806.19
2023-03-06T05:12:41.481Z,100792.44
2023-03-06T05:15:14.568Z,100799.63
2023-03-06T05:17:41.548Z,100802.59
2023-03-06T05:20:11.899Z,100794.13
2023-03-06T05:22:38.718Z,100789.13
2023-03-06T05:25:05.722Z,100788.41
2023-03-06T05:27:33.508Z,100783.41
2023-03-06T05:30:00.290Z,100772.38
2023-03-06T05:32:27.049Z,100782.19
2023-03-06T05:34:53.951Z,100778.69
2023-03-06T05:37:20.804Z,100775.38
2023-03-06T05:39:47.598Z,100777.94
2023-03-06T05:42:14.422Z,100784.06
2023-03-06T05:44:41.860Z,100786.78
2023-03-06T05:47:09.218Z,100786.13
2023-03-06T05:49:36.823Z,100795.69
2023-03-06T05:52:04.792Z,100798.25
2023-03-06T05:54:37.419Z,100791.56
2023-03-06T05:57:05.664Z,100791.56
2023-03-06T05:59:33.255Z,100788.13
2023-03-06T06:02:01.277Z,100787.38
2023-03-06T06:04:28.633Z,100783.09
2023-03-06T06:07:00.141Z,100783.09
2023-03-06T06:09:27.869Z,100778.88
2023-03-06T06:11:59.997Z,100787.44
2023-03-06T06:14:27.248Z,100782.47
2023-03-06T06:16:54.865Z,100783.34
2023-03-06T06:19:22.302Z,100783.41
2023-03-06T06:21:54.193Z,100789.53
2023-03-06T06:24:23.858Z,100784.34
2023-03-06T06:26:55.490Z,100784.41
2023-03-06T06:29:23.242Z,100782.75
2023-03-06T06:31:51.132Z,100780.97
2023-03-06T06:34:18.582Z,100783.41
2023-03-06T06:36:45.572Z,100779.94
2023-03-06T06:39:15.290Z,100787.63
2023-03-06T06:41:59.441Z,100785.84
2023-03-06T06:44:28.873Z,100786.75
2023-03-06T06:49:42.325Z,100800.28
2023-03-06T06:52:09.136Z,100806.34
2023-03-06T06:54:35.981Z,100807.25
2023-03-06T06:57:02.696Z,100805.56
2023-03-06T06:59:29.495Z,100824.25
2023-03-06T07:01:56.283Z,100823.28
2023-03-06T07:04:23.194Z,100808.06
2023-03-06T07:06:49.913Z,100785.88
2023-03-06T07:09:16.710Z,100775.66
2023-03-06T07:11:43.652Z,100781.63
2023-03-06T07:14:10.607Z,100788.38
2023-03-06T07:16:37.405Z,100789.38
2023-03-06T07:19:04.512Z,100792.00
2023-03-06T07:21:31.380Z,100784.34
2023-03-06T07:23:58.214Z,100791.16
2023-03-06T07:26:26.753Z,100787.66
2023-03-06T07:28:54.425Z,100788.59
2023-03-06T07:31:24.693Z,100791.19
2023-03-06T07:33:52.516Z,100786.13
2023-03-06T07:36:19.985Z,100786.31
2023-03-06T07:38:46.908Z,100790.69
2023-03-06T07:41:15.459Z,100790.03
2023-03-06T07:43:43.831Z,100795.13
2023-03-06T07:46:12.950Z,100799.28
2023-03-06T07:48:40.718Z,100801.03
2023-03-06T07:51:13.428Z,100807.72
2023-03-06T07:53:40.357Z,100808.53
2023-03-06T07:56:09.180Z,100828.25
2023-03-06T07:58:41.601Z,100828.09
2023-03-06T08:01:14.121Z,100836.50
2023-03-06T08:03:41.226Z,100844.31
2023-03-06T08:06:16.933Z,100834.94
2023-03-06T08:08:46.331Z,100828.75
2023-03-06T08:11:16.642Z,100814.34
2023-03-06T08:13:43.930Z,100829.50
2023-03-06T08:16:11.702Z,100837.31
2023-03-06T08:18:39.912Z,100838.72
2023-03-06T08:21:09.933Z,100836.81
2023-03-06T08:23:36.852Z,100835.97
2023-03-06T08:26:06.937Z,100836.06
2023-03-06T08:28:34.664Z,100841.31
2023-03-06T08:31:30.996Z,100840.41
2023-03-06T08:34:01.269Z,100837.91
2023-03-06T08:36:28.687Z,100842.28
2023-03-06T08:38:55.545Z,100850.97
2023-03-06T08:41:22.964Z,100850.25
2023-03-06T08:43:50.483Z,100858.09
2023-03-06T08:46:18.922Z,100854.63
2023-03-06T08:48:47.846Z,100859.72
2023-03-06T08:51:15.098Z,100850.25
2023-03-06T08:53:43.982Z,100838.44
2023-03-06T08:56:18.449Z,100837.09
2023-03-06T08:58:45.702Z,100854.88
2023-03-06T09:01:18.337Z,100860.72
2023-03-06T09:03:46.187Z,100866.59
2023-03-06T09:06:13.780Z,100869.00
2023-03-06T09:08:44.683Z,100877.38
2023-03-06T09:11:14.573Z,100879.91
2023-03-06T09:13:42.919Z,100878.38
2023-03-06T09:16:11.630Z,100870.63
2023-03-06T09:18:38.531Z,100856.00
2023-03-06T09:21:06.136Z,100859.41
2023-03-06T09:23:33.559Z,100848.22
2023-03-06T09:26:01.045Z,100848.31
2023-03-06T09:28:27.835Z,100844.69
2023-03-06T09:30:54.726Z,100833.44
2023-03-06T09:33:21.764Z,100842.75
2023-03-06T09:35:54.513Z,100856.16
2023-03-06T09:38:23.913Z,100851.63
2023-03-06T09:41:15.011Z,100861.84
2023-03-06T09:43:48.251Z,100882.91
2023-03-06T09:46:36.724Z,100904.47
2023-03-06T09:49:38.891Z,100896.69
2023-03-06T09:52:31.582Z,100874.13
2023-03-06T09:55:10.407Z,100881.81
2023-03-06T09:58:17.819Z,100852.97
2023-03-06T10:00:58.894Z,100825.78
2023-03-06T10:04:02.713Z,100833.25
2023-03-06T10:06:50.366Z,100842.22
2023-03-06T10:09:48.476Z,100848.25
2023-03-06T10:12:24.751Z,100851.13
2023-03-06T10:15:06.885Z,100865.97
2023-03-06T10:17:41.153Z,100860.94
2023-03-06T10:20:42.159Z,100862.75
2023-03-06T10:23:25.510Z,100856.06
2023-03-06T10:26:26.534Z,100842.53
2023-03-06T10:29:11.552Z,100840.19
2023-03-06T10:31:49.652Z,100835.94
2023-03-06T10:34:23.357Z,100831.63
2023-03-06T10:36:50.907Z,100824.03
2023-03-06T10:39:20.657Z,100824.19
2023-03-06T10:41:48.744Z,100821.69
2023-03-06T10:44:15.447Z,100829.44
2023-03-06T10:46:45.202Z,100821.06
2023-03-06T10:49:15.029Z,100815.13
2023-03-06T10:51:59.915Z,100816.03
2023-03-06T10:54:28.615Z,100805.75
2023-03-06T10:56:55.951Z,100797.84
2023-03-06T10:59:25.574Z,100805.44
2023-03-06T11:01:55.853Z,100802.94
2023-03-06T11:04:30.678Z,100808.28
2023-03-06T11:07:16.279Z,100820.56
2023-03-06T11:10:04.443Z,100819.69
2023-03-06T11:12:36.666Z,100818.94
2023-03-06T11:15:17.360Z,100823.84
2023-03-06T11:17:50.147Z,100823.19
2023-03-06T11:20:52.071Z,100813.88
2023-03-06T11:23:52.272Z,100831.72
2023-03-06T11:26:34.178Z,100812.94
2023-03-06T11:29:24.953Z,100813.81
2023-03-06T11:31:55.095Z,100802.66
2023-03-06T11:34:33.992Z,100811.97
2023-03-06T11:37:06.596Z,100815.53
2023-03-06T11:39:43.864Z,100821.66
2023-03-06T11:42:10.544Z,100830.13
2023-03-06T11:44:49.417Z,100827.25
2023-03-06T11:47:24.100Z,100810.84
2023-03-06T11:50:02.814Z,100812.22
2023-03-06T11:52:45.381Z,100801.78
2023-03-06T11:55:20.862Z,100799.16
2023-03-06T11:58:12.028Z,100794.91
2023-03-06T12:00:47.758Z,100789.00
2023-03-06T12:03:26.742Z,100783.34
2023-03-06T12:06:25.903Z,100784.09
2023-03-06T12:09:37.490Z,100774.06
2023-03-06T12:12:10.757Z,100767.28
2023-03-06T12:14:55.852Z,100769.94
2023-03-06T12:17:22.590Z,100769.84
2023-03-06T12:19:58.897Z,100762.19
2023-03-06T12:22:30.154Z,100768.16
2023-03-06T12:25:07.988Z,100769.25
2023-03-06T12:27:59.634Z,100766.75
2023-03-06T12:30:57.043Z,100770.00
2023-03-06T12:33:33.146Z,100765.53
2023-03-06T12:36:17.127Z,100753.59
2023-03-06T12:39:14.667Z,100752.69
2023-03-06T12:42:26.008Z,100748.41
2023-03-06T12:45:06.783Z,100731.50
2023-03-06T12:47:41.067Z,100721.41
2023-03-06T12:50:23.304Z,100726.63
2023-03-06T12:52:53.237Z,100723.28
2023-03-06T12:55:24.974Z,100723.38
2023-03-06T12:57:52.853Z,100712.44
2023-03-06T13:00:35.317Z,100710.94
2023-03-06T13:03:11.612Z,100702.59
2023-03-06T13:05:50.295Z,100699.25
2023-03-06T13:08:38.763Z,100700.09
2023-03-06T13:11:39.678Z,100684.72
2023-03-06T13:14:42.327Z,100673.69
2023-03-06T13:17:20.939Z,100684.03
2023-03-06T13:19:48.613Z,100683.13
2023-03-06T13:22:27.920Z,100684.94
2023-03-06T13:25:19.620Z,100675.59
2023-03-06T13:27:53.526Z,100672.34
2023-03-06T13:30:45.610Z,100671.56
2023-03-06T13:33:44.487Z,100669.06
2023-03-06T13:36:34.438Z,100658.78
2023-03-06T13:39:02.180Z,100658.78
2023-03-06T13:41:31.799Z,100653.59
2023-03-06T13:44:23.249Z,100651.00
2023-03-06T13:46:59.884Z,100645.34
2023-03-06T13:49:28.624Z,100648.72
2023-03-06T13:52:10.808Z,100643.66
2023-03-06T13:54:53.273Z,100642.28
2023-03-06T13:57:47.384Z,100644.22
2023-03-06T14:00:17.641Z,100654.91
2023-03-06T14:03:06.916Z,100654.91
2023-03-06T14:05:50.846Z,100649.72
2023-03-06T14:08:21.714Z,100647.16
2023-03-06T14:11:00.748Z,100641.34
2023-03-06T14:13:45.234Z,100643.16
2023-03-06T14:16:27.851Z,100643.91
2023-03-06T14:18:58.573Z,100648.97
2023-03-06T14:21:39.723Z,100654.03
2023-03-06T14:24:06.634Z,100639.47
2023-03-06T14:26:47.202Z,100637.06
2023-03-06T14:29:26.180Z,100644.09
2023-03-06T14:31:58.986Z,100640.59
2023-03-06T14:34:28.680Z,100633.66
2023-03-06T14:37:00.756Z,100642.19
2023-03-06T14:39:42.232Z,100633.53
2023-03-06T14:42:16.757Z,100623.19
2023-03-06T14:44:44.510Z,100626.56
2023-03-06T14:47:22.159Z,100619.66
2023-03-06T14:50:28.045Z,100623.84
2023-03-06T14:52:59.359Z,100624.69
2023-03-06T14:55:28.190Z,100623.84
2023-03-06T14:58:07.935Z,100617.97
2023-03-06T15:00:41.682Z,100624.84
2023-03-06T15:03:17.812Z,100616.34
2023-03-06T15:05:46.894Z,100621.59
2023-03-06T15:08:20.498Z,100618.97
2023-03-06T15:11:02.490Z,100623.19
2023-03-06T15:13:32.580Z,100612.91
2023-03-06T15:16:04.577Z,100612.84
2023-03-06T15:18:42.745Z,100610.28
2023-03-06T15:21:13.567Z,100606.88
2023-03-06T15:23:45.731Z,100612.84
2023-03-06T15:26:18.328Z,100608.56
2023-03-06T15:28:47.530Z,100606.00
2023-03-06T15:31:30.984Z,100605.94
2023-03-06T15:34:02.225Z,100594.97
2023-03-06T15:36:31.897Z,100595.06
2023-03-06T15:39:00.833Z,100600.31
2023-03-06T15:41:36.390Z,100599.44
2023-03-06T15:44:11.540Z,100593.56
2023-03-06T15:46:38.652Z,100585.78
2023-03-06T15:49:05.449Z,100595.91
2023-03-06T15:51:33.420Z,100594.06
2023-03-06T15:54:11.273Z,100586.31
2023-03-06T15:56:42.111Z,100588.94
2023-03-06T15:59:20.108Z,100597.78
2023-03-06T16:01:47.443Z,100589.28
2023-03-06T16:04:17.068Z,100596.19
2023-03-06T16:06:47.712Z,100592.75
2023-03-06T16:09:14.739Z,100596.16
2023-03-06T16:11:44.958Z,100595.38
2023-03-06T16:14:20.174Z,100591.03
2023-03-06T16:16:48.147Z,100595.31
2023-03-06T16:19:25.923Z,100596.97
2023-03-06T16:21:54.718Z,100591.75
2023-03-06T16:24:21.988Z,100596.72
2023-03-06T16:26:51.115Z,100595.88
2023-03-06T16:29:22.971Z,100592.47
2023-03-06T16:31:50.278Z,100592.41
2023-03-06T16:34:19.874Z,100601.78
2023-03-06T16:36:48.581Z,100595.75
2023-03-06T16:39:17.531Z,100601.75
2023-03-06T16:41:45.996Z,100605.09
2023-03-06T16:44:13.710Z,100607.78
2023-03-06T16:46:45.958Z,100602.59
2023-03-06T16:49:16.929Z,100607.66
2023-03-06T16:51:44.064Z,100609.34
2023-03-06T16:54:11.446Z,100612.69
2023-03-06T16:56:38.237Z,100617.81
2023-03-06T16:59:05.311Z,100615.19
2023-03-06T17:01:32.287Z,100607.50
2023-03-06T17:04:08.669Z,100606.59
2023-03-06T17:06:35.644Z,100618.56
2023-03-06T17:09:02.553Z,100615.09
2023-03-06T17:11:29.738Z,100611.59
2023-03-06T17:13:56.535Z,100610.47
2023-03-06T17:16:23.411Z,100618.09
2023-03-06T17:18:50.796Z,100615.44
2023-03-06T17:21:17.853Z,100618.00
2023-03-06T17:23:44.822Z,100621.41
2023-03-06T17:26:18.826Z,100624.81
2023-03-06T17:28:46.457Z,100623.09
2023-03-06T17:31:16.918Z,100613.69
2023-03-06T17:33:44.093Z,100629.09
2023-03-06T17:36:11.666Z,100621.34
2023-03-06T17:38:38.656Z,100634.16
2023-03-06T17:41:06.965Z,100620.44
2023-03-06T17:43:34.220Z,100623.00
2023-03-06T17:46:12.416Z,100620.38
2023-03-06T17:48:40.334Z,100622.03
2023-03-06T17:51:07.530Z,100624.66
2023-03-06T17:53:34.514Z,100625.50
2023-03-06T17:56:06.674Z,100623.75
2023-03-06T17:58:34.275Z,100619.41
2023-03-06T18:01:01.489Z,100628.00
2023-03-06T18:03:28.491Z,100629.59
2023-03-06T18:06:03.974Z,100637.50
2023-03-06T18:08:32.282Z,100635.72
2023-03-06T18:11:01.324Z,100637.28
2023-03-06T18:13:28.377Z,100636.41
2023-03-06T18:15:55.437Z,100635.59
2023-03-06T18:18:23.618Z,100639.03
2023-03-06T18:20:50.504Z,100642.44
2023-03-06T18:23:17.674Z,100652.56
2023-03-06T18:25:44.980Z,100653.38
2023-03-06T18:28:12.394Z,100656.88
2023-03-06T18:30:43.818Z,100657.63
2023-03-06T18:33:10.970Z,100654.13
2023-03-06T18:35:38.118Z,100661.03
2023-03-06T18:38:05.107Z,100658.41
2023-03-06T18:40:32.474Z,100661.72
2023-03-06T18:42:59.453Z,100658.34
2023-03-06T18:45:26.603Z,100659.25
2023-03-06T18:47:54.928Z,100658.31
2023-03-06T18:50:21.716Z,100654.75
2023-03-06T18:52:48.609Z,100654.75
2023-03-06T18:55:15.504Z,100652.16
2023-03-06T18:57:42.451Z,100655.59
2023-03-06T19:00:09.921Z,100649.59
2023-03-06T19:02:36.675Z,100653.88
2023-03-06T19:05:03.888Z,100652.13
2023-03-06T19:07:30.704Z,100658.03
2023-03-06T19:09:57.679Z,100659.72
2023-03-06T19:12:24.619Z,100657.97
2023-03-06T19:14:51.615Z,100666.47
2023-03-06T19:17:18.451Z,100669.00
2023-03-06T19:19:45.756Z,100674.00
2023-03-06T19:22:13.013Z,100666.97
2023-03-06T19:24:40.310Z,100666.03
2023-03-06T19:27:07.177Z,100669.44
2023-03-06T19:29:34.059Z,100665.97
2023-03-06T19:32:01.513Z,100666.94
2023-03-06T19:34:28.863Z,100665.97
2023-03-06T19:36:55.869Z,100666.81
2023-03-06T19:39:24.873Z,100662.47
2023-03-06T19:41:52.507Z,100666.75
2023-03-06T19:44:19.958Z,100656.53
2023-03-06T19:46:47.179Z,100660.78
2023-03-06T19:49:18.292Z,100663.34
2023-03-06T19:51:45.943Z,100665.84
2023-03-06T19:54:14.179Z,100663.22
2023-03-06T19:56:41.519Z,100666.75
2023-03-06T19:59:09.097Z,100668.25
2023-03-06T20:01:36.526Z,100668.09
2023-03-06T20:04:04.364Z,100668.03
2023-03-06T20:06:39.481Z,100669.78
2023-03-06T20:09:09.594Z,100667.97
2023-03-06T20:11:37.219Z,100672.28
2023-03-06T20:14:06.825Z,100681.72
2023-03-06T20:16:34.858Z,100684.94
2023-03-06T20:19:03.606Z,100684.84
2023-03-06T20:21:35.985Z,100676.19
2023-03-06T20:24:04.801Z,100690.75
2023-03-06T20:26:34.524Z,100688.13
2023-03-06T20:29:02.335Z,100690.59
2023-03-06T20:31:30.626Z,100687.09
2023-03-06T20:33:59.594Z,100688.66
2023-03-06T20:36:36.252Z,100686.81
2023-03-06T20:39:12.355Z,100691.06
2023-03-06T20:41:39.749Z,100694.53
2023-03-06T20:44:08.784Z,100692.00
2023-03-06T20:46:36.880Z,100692.91
2023-03-06T20:49:05.003Z,100693.78
2023-03-06T20:51:36.261Z,100700.72
2023-03-06T20:54:03.785Z,100701.56
2023-03-06T20:56:33.330Z,100699.03
2023-03-06T20:59:01.459Z,100701.69
2023-03-06T21:01:35.339Z,100694.78
2023-03-06T21:04:04.658Z,100703.28
2023-03-06T21:06:32.127Z,100703.84
2023-03-06T21:09:00.545Z,100706.47
2023-03-06T21:11:29.210Z,100709.81
2023-03-06T21:13:57.345Z,100710.66
2023-03-06T21:16:26.264Z,100715.81
2023-03-06T21:18:59.108Z,100701.28
2023-03-06T21:21:33.180Z,100700.59
2023-03-06T21:24:01.370Z,100705.69
2023-03-06T21:26:30.528Z,100704.06
2023-03-06T21:29:01.140Z,100698.81
2023-03-06T21:31:29.805Z,100705.75
2023-03-06T21:33:59.176Z,100702.41
2023-03-06T21:36:30.161Z,100699.78
2023-03-06T21:38:57.945Z,100705.03
2023-03-06T21:41:28.674Z,100706.84
2023-03-06T21:43:58.561Z,100703.75
2023-03-06T21:46:27.467Z,100710.31
2023-03-06T21:48:55.766Z,100713.66
2023-03-06T21:51:23.852Z,100707.63
2023-03-06T21:53:53.004Z,100713.66
2023-03-06T21:56:24.460Z,100701.66
2023-03-06T21:58:52.021Z,100707.53
2023-03-06T22:01:22.238Z,100704.69
2023-03-06T22:03:50.800Z,100700.34
2023-03-06T22:06:21.153Z,100711.47
2023-03-06T22:08:48.495Z,100706.38
2023-03-06T22:11:17.835Z,100709.81
2023-03-06T22:13:46.146Z,100710.81
2023-03-06T22:16:13.338Z,100701.41
2023-03-06T22:18:43.864Z,100700.59
2023-03-06T22:21:13.057Z,100705.75
2023-03-06T22:23:43.388Z,100708.31
2023-03-06T22:26:13.707Z,100715.13
2023-03-06T22:28:41.981Z,100714.34
2023-03-06T22:31:13.136Z,100712.56
2023-03-06T22:33:40.814Z,100715.13
2023-03-06T22:36:10.803Z,100713.22
2023-03-06T22:38:40.202Z,100710.63
2023-03-06T22:41:08.442Z,100716.63
2023-03-06T22:43:36.532Z,100717.28
2023-03-06T22:46:06.251Z,100714.69
2023-03-06T22:48:33.482Z,100714.69
2023-03-06T22:51:09.559Z,100707.84
2023-03-06T22:53:37.278Z,100712.19
2023-03-06T22:56:06.526Z,100713.09
2023-03-06T22:58:37.212Z,100713.09
2023-03-06T23:01:25.356Z,100716.44
2023-03-06T23:03:54.996Z,100721.50
2023-03-06T23:06:43.281Z,100719.78
2023-03-06T23:09:20.671Z,100719.84
2023-03-06T23:12:06.054Z,100723.25
2023-03-06T23:14:51.671Z,100720.69
2023-03-06T23:17:37.130Z,100730.09
2023-03-06T23:20:23.115Z,100723.19
2023-03-06T23:23:08.423Z,100731.69
2023-03-06T23:25:41.520Z,100723.84
2023-03-06T23:28:08.500Z,100721.25
2023-03-06T23:30:35.382Z,100712.66
2023-03-06T23:33:02.417Z,100715.28
2023-03-06T23:35:29.231Z,100717.66
2023-03-06T23:37:56.432Z,100717.63
2023-03-06T23:40:23.267Z,100716.03
2023-03-06T23:42:50.144Z,100721.13
2023-03-06T23:45:17.133Z,100721.06
2023-03-06T23:47:44.121Z,100724.50
2023-03-06T23:50:11.956Z,100723.63
2023-03-06T23:52:38.855Z,100704.66
2023-03-06T23:55:07.288Z,100716.84
2023-03-06T23:57:34.777Z,100713.41
